Time;durP1;ratioP1;P1;durP2;ratioP2;P2;SDS_P1;SDS_P2;PMS_P1;PMS_P2;Temp;Humidity;BMP_temperature;BMP_pressure;BME280_temperature;BME280_humidity;BME280_pressure;Samples;Min_cycle;Max_cycle;Signal;HPM_P1;HPM_P2
2022/10/10 00:00:38;;;;;;;4.47;3.35;;;18.50;95.20;;;18.67;65.49;99748.88;5081855;28;20104;-74
2022/10/10 00:03:24;;;;;;;5.80;3.50;;;18.50;95.00;;;18.66;65.42;99750.03;5100199;28;20775;-74
2022/10/10 00:05:52;;;;;;;4.10;3.22;;;18.50;95.00;;;18.58;66.98;99747.97;5097783;28;20058;-74
2022/10/10 00:08:18;;;;;;;6.70;3.95;;;18.50;95.30;;;18.65;66.78;99745.66;5066042;28;20039;-74
2022/10/10 00:10:44;;;;;;;7.85;4.00;;;18.50;95.30;;;18.65;66.81;99738.22;5099086;28;20040;-74
2022/10/10 00:13:10;;;;;;;5.72;3.63;;;18.50;95.30;;;18.67;65.95;99740.66;5096929;28;20138;-74
2022/10/10 00:15:37;;;;;;;5.60;3.60;;;18.50;95.10;;;18.63;65.79;99737.69;5099293;28;20448;-74
2022/10/10 00:18:03;;;;;;;4.50;3.70;;;18.50;95.00;;;18.62;65.47;99732.50;5083593;28;20039;-74
2022/10/10 00:20:29;;;;;;;3.85;3.45;;;18.50;95.00;;;18.66;65.80;99736.28;5071797;28;20942;-74
2022/10/10 00:22:55;;;;;;;6.10;4.05;;;18.50;95.20;;;18.58;66.80;99728.75;5078193;28;20081;-74
2022/10/10 00:25:22;;;;;;;4.15;3.50;;;18.40;95.30;;;18.56;67.00;99722.75;5097787;28;20616;-74
2022/10/10 00:27:47;;;;;;;5.40;3.00;;;18.50;95.40;;;18.60;66.55;99730.06;5086190;28;20040;-74
2022/10/10 00:30:16;;;;;;;4.53;3.75;;;18.50;95.30;;;18.63;65.99;99725.91;5091835;28;20046;-74
2022/10/10 00:32:42;;;;;;;4.18;3.33;;;18.40;95.10;;;18.60;65.74;99723.78;5091888;28;20036;-74
2022/10/10 00:35:08;;;;;;;5.13;3.85;;;18.40;95.10;;;18.62;65.22;99714.09;5097423;28;20436;-74
2022/10/10 00:37:35;;;;;;;5.15;3.22;;;18.40;95.00;;;18.53;66.52;99717.84;5106330;28;20042;-74
2022/10/10 00:40:01;;;;;;;5.10;3.20;;;18.40;95.20;;;18.58;66.94;99712.25;5088996;28;20586;-74
2022/10/10 00:42:27;;;;;;;4.90;4.00;;;18.40;95.30;;;18.57;66.99;99708.72;5070855;28;20123;-74
2022/10/10 00:45:24;;;;;;;3.10;2.53;;;18.40;95.40;;;18.58;66.05;99704.03;5070594;28;20040;-75
2022/10/10 00:47:51;;;;;;;5.03;3.72;;;18.40;95.20;;;18.57;65.63;99705.13;5099064;28;20040;-75
2022/10/10 00:50:18;;;;;;;4.25;3.40;;;18.40;95.10;;;18.54;65.45;99709.28;5082682;28;20044;-75
2022/10/10 00:52:44;;;;;;;6.25;3.60;;;18.40;95.10;;;18.55;65.43;99704.63;5054673;28;20040;-75
2022/10/10 00:55:10;;;;;;;8.00;3.97;;;18.40;95.10;;;18.49;67.06;99712.13;5085212;28;20040;-75
2022/10/10 00:57:36;;;;;;;3.83;3.05;;;18.30;95.40;;;18.53;67.10;99691.19;5109706;28;20040;-75
2022/10/10 01:00:04;;;;;;;6.05;4.13;;;18.30;95.50;;;18.52;66.37;99696.97;5083102;28;20489;-75
2022/10/10 01:02:30;;;;;;;4.32;3.00;;;18.30;95.30;;;18.54;65.63;99692.81;5084092;28;20051;-75
2022/10/10 01:04:56;;;;;;;3.53;3.22;;;18.30;95.10;;;18.57;65.58;99691.38;5100795;28;20099;-74
2022/10/10 01:07:24;;;;;;;6.00;4.15;;;18.30;95.10;;;18.55;65.43;99683.47;5090601;28;20048;-74
2022/10/10 01:09:51;;;;;;;4.57;3.47;;;18.40;95.10;;;18.55;66.39;99679.91;5083164;28;20047;-74
2022/10/10 01:12:30;;;;;;;4.68;3.38;;;18.30;95.20;;;18.48;67.10;99690.47;5072706;28;20046;-74
2022/10/10 01:15:22;;;;;;;4.35;3.60;;;18.40;95.40;;;18.48;66.93;99683.06;5092546;28;20495;-75
2022/10/10 01:18:18;;;;;;;5.53;3.22;;;18.30;95.40;;;18.48;65.87;99685.00;5100170;28;20035;-74
2022/10/10 01:21:22;;;;;;;4.03;3.58;;;18.30;95.10;;;18.49;65.92;99683.84;5107525;28;20479;-74
2022/10/10 01:24:09;;;;;;;5.05;3.45;;;18.30;95.00;;;18.50;65.08;99689.06;5092343;28;20445;-75
2022/10/10 01:27:27;;;;;;;4.43;3.58;;;18.40;95.00;;;18.41;67.03;99683.44;5108000;28;20383;-75
2022/10/10 01:29:56;;;;;;;5.65;3.42;;;18.30;95.30;;;18.46;67.13;99681.72;5108357;28;20048;-75
2022/10/10 01:32:31;;;;;;;5.68;3.70;;;18.30;95.30;;;18.49;65.86;99684.66;5087695;28;20108;-74
2022/10/10 01:35:27;;;;;;;4.10;3.47;;;18.30;95.20;;;18.51;65.43;99684.38;5089917;28;20068;-74
2022/10/10 01:38:07;;;;;;;4.22;2.88;;;18.30;95.10;;;18.51;65.47;99676.94;5077959;28;20088;-74
2022/10/10 01:40:41;;;;;;;5.03;3.58;;;18.30;95.00;;;18.48;65.34;99674.81;5088973;28;20043;-75
2022/10/10 01:43:08;;;;;;;4.25;3.30;;;18.30;95.00;;;18.52;65.61;99672.25;5087842;28;20043;-75
2022/10/10 01:45:34;;;;;;;5.72;3.65;;;18.30;95.20;;;18.48;66.10;99671.25;5091547;28;20394;-74
2022/10/10 01:48:03;;;;;;;4.82;3.58;;;18.30;95.20;;;18.50;65.89;99664.34;5104553;28;20039;-74
2022/10/10 01:50:30;;;;;;;6.63;3.53;;;18.30;95.10;;;18.50;65.44;99652.53;5089642;28;20036;-74
2022/10/10 01:53:19;;;;;;;3.90;3.50;;;18.30;95.00;;;18.51;65.02;99659.66;5101784;28;20047;-74
2022/10/10 01:56:13;;;;;;;4.57;3.08;;;18.30;94.90;;;18.45;65.11;99650.69;5101348;28;20043;-74
2022/10/10 01:59:00;;;;;;;6.00;3.35;;;18.30;94.90;;;18.42;66.10;99649.38;5085107;28;20044;-74
2022/10/10 02:01:58;;;;;;;4.32;3.17;;;18.30;95.10;;;18.48;66.20;99649.28;5104284;28;20063;-74
2022/10/10 02:04:43;;;;;;;4.68;3.03;;;18.30;95.20;;;18.47;65.39;99647.63;5107388;28;20040;-74
2022/10/10 02:07:14;;;;;;;4.82;3.55;;;18.30;95.10;;;18.47;65.06;99650.38;5105639;28;20036;-75
2022/10/10 02:09:41;;;;;;;3.45;3.15;;;18.30;95.00;;;18.47;64.87;99656.72;5070944;28;20040;-74
2022/10/10 02:12:08;;;;;;;4.35;3.40;;;18.30;94.90;;;18.47;64.42;99650.38;5065398;28;20035;-74
2022/10/10 02:14:41;;;;;;;3.60;3.30;;;18.30;94.80;;;18.45;65.64;99647.94;5087415;28;20128;-74
2022/10/10 02:17:11;;;;;;;5.32;3.80;;;18.30;95.10;;;18.41;66.25;99650.47;5090858;28;20046;-74
2022/10/10 02:19:40;;;;;;;4.05;2.90;;;18.30;95.20;;;18.39;66.30;99641.75;5087281;28;20032;-74
2022/10/10 02:22:06;;;;;;;4.55;3.83;;;18.30;95.20;;;18.44;65.29;99644.41;5086543;28;20039;-74
2022/10/10 02:24:32;;;;;;;3.35;3.03;;;18.30;94.90;;;18.48;64.73;99643.78;5069621;28;20027;-74
2022/10/10 02:27:02;;;;;;;5.80;4.10;;;18.30;94.80;;;18.46;64.66;99646.00;5088768;28;20040;-75
2022/10/10 02:29:32;;;;;;;3.25;2.60;;;18.30;94.80;;;18.37;65.19;99646.72;5086136;28;20071;-74
2022/10/10 02:32:21;;;;;;;5.57;3.90;;;18.30;94.90;;;18.40;65.80;99642.56;5068912;28;20041;-74
2022/10/10 02:34:50;;;;;;;4.43;3.42;;;18.20;95.10;;;18.41;65.99;99646.91;5090229;28;20410;-75
2022/10/10 02:37:16;;;;;;;3.08;2.85;;;18.20;95.10;;;18.40;65.18;99646.13;5105820;28;20065;-74
2022/10/10 02:39:52;;;;;;;3.00;2.50;;;18.30;94.90;;;18.42;65.01;99640.31;5058307;28;20035;-74
2022/10/10 02:42:19;;;;;;;4.78;3.78;;;18.30;94.90;;;18.34;65.19;99641.84;5076245;28;20032;-74
2022/10/10 02:44:45;;;;;;;6.28;3.65;;;18.20;94.90;;;18.41;64.44;99635.94;5074032;28;20048;-75
2022/10/10 02:47:11;;;;;;;4.20;3.70;;;18.20;94.80;;;18.38;65.59;99640.09;5104341;28;20043;-74
2022/10/10 02:49:38;;;;;;;3.92;3.30;;;18.20;95.10;;;18.37;65.81;99643.19;5087548;28;20096;-74
2022/10/10 02:52:06;;;;;;;2.85;2.55;;;18.20;95.10;;;18.39;65.50;99636.25;5091539;28;20036;-74
2022/10/10 02:54:32;;;;;;;3.30;2.85;;;18.20;95.00;;;18.39;65.23;99630.75;5091638;28;20040;-75
2022/10/10 02:56:58;;;;;;;4.03;3.30;;;18.20;94.90;;;18.40;64.64;99642.56;5081108;28;20044;-74
2022/10/10 02:59:24;;;;;;;4.50;3.45;;;18.20;94.80;;;18.41;64.51;99628.50;5096300;28;20043;-74
2022/10/10 03:01:50;;;;;;;4.57;2.97;;;18.20;94.70;;;18.41;64.66;99630.44;5102226;28;20047;-74
2022/10/10 03:04:16;;;;;;;3.83;3.25;;;18.20;94.80;;;18.41;65.30;99630.44;5069730;28;20198;-74
2022/10/10 03:06:42;;;;;;;4.07;3.10;;;18.20;95.00;;;18.37;65.73;99626.69;5091789;28;20040;-74
2022/10/10 03:09:08;;;;;;;5.13;3.45;;;18.20;95.00;;;18.37;64.92;99622.00;5107982;28;20054;-76
2022/10/10 03:11:34;;;;;;;4.00;3.58;;;18.20;94.80;;;18.34;64.73;99622.63;5087218;28;20467;-76
2022/10/10 03:14:00;;;;;;;4.20;2.92;;;18.20;94.80;;;18.37;64.40;99615.72;5083563;28;20035;-76
2022/10/10 03:16:26;;;;;;;3.83;2.90;;;18.20;94.70;;;18.34;64.51;99622.63;5079693;28;20085;-75
2022/10/10 03:18:52;;;;;;;4.43;3.40;;;18.20;94.80;;;18.35;65.09;99617.94;5105785;28;20036;-75
2022/10/10 03:21:18;;;;;;;2.75;2.50;;;18.20;94.90;;;18.29;65.53;99608.97;5069412;28;20084;-75
2022/10/10 03:23:45;;;;;;;5.25;3.30;;;18.20;95.00;;;18.33;65.22;99609.19;5072588;28;20487;-76
2022/10/10 03:26:11;;;;;;;3.63;3.22;;;18.10;94.90;;;18.37;64.70;99605.53;5068197;28;20096;-77
2022/10/10 03:28:37;;;;;;;3.35;2.78;;;18.10;94.80;;;18.35;64.39;99607.75;5071823;28;20039;-75
2022/10/10 03:31:03;;;;;;;4.68;3.53;;;18.10;94.80;;;18.33;64.68;99609.19;5069588;28;20135;-76
2022/10/10 03:33:29;;;;;;;3.85;2.90;;;18.10;94.80;;;18.32;64.62;99604.78;5101577;28;20093;-76
2022/10/10 03:35:55;;;;;;;3.75;3.22;;;18.10;94.80;;;18.29;65.34;99597.19;5084788;28;20044;-76
2022/10/10 03:38:21;;;;;;;3.47;2.95;;;18.10;95.00;;;18.33;65.37;99603.69;5084818;28;20039;-76
2022/10/10 03:40:47;;;;;;;4.03;3.53;;;18.20;95.00;;;18.31;64.92;99600.44;5105450;28;20907;-76
2022/10/10 03:43:14;;;;;;;4.18;3.13;;;18.10;94.80;;;18.32;64.68;99602.88;5079847;28;20040;-76
2022/10/10 03:45:46;;;;;;;3.72;2.85;;;18.10;94.80;;;18.34;64.58;99605.31;5070117;28;20042;-76
2022/10/10 03:48:12;;;;;;;4.72;3.20;;;18.10;94.80;;;18.32;64.41;99604.78;5083531;28;20040;-76
2022/10/10 03:50:38;;;;;;;4.05;2.78;;;18.10;94.70;;;18.28;64.93;99603.78;5083025;28;20055;-76
2022/10/10 03:53:05;;;;;;;3.97;2.72;;;18.10;94.80;;;18.26;65.02;99598.59;5056499;28;20804;-76
2022/10/10 03:55:31;;;;;;;3.72;2.38;;;18.10;94.80;;;18.28;63.54;99604.59;5095105;28;20040;-76
2022/10/10 03:57:57;;;;;;;5.50;3.90;;;18.10;94.40;;;18.30;62.84;99591.38;5088761;28;20596;-76
2022/10/10 04:00:23;;;;;;;4.88;2.53;;;18.20;94.30;;;18.30;62.57;99588.63;5079610;28;20065;-76
2022/10/10 04:02:50;;;;;;;4.68;3.30;;;18.20;94.20;;;18.28;62.73;99590.88;5067188;28;20052;-76
2022/10/10 04:05:16;;;;;;;6.00;3.08;;;18.10;94.20;;;18.25;64.00;99579.69;5092749;28;20487;-76
2022/10/10 04:07:42;;;;;;;4.35;3.05;;;18.10;94.60;;;18.25;64.44;99576.94;5086216;28;20126;-76
2022/10/10 04:10:08;;;;;;;4.88;3.25;;;18.10;94.70;;;18.27;63.09;99583.75;5060077;28;20161;-76
2022/10/10 04:12:35;;;;;;;3.50;2.90;;;18.10;94.40;;;18.31;62.89;99581.22;5079467;28;20040;-76
2022/10/10 04:15:01;;;;;;;3.17;2.67;;;18.10;94.20;;;18.21;62.41;99585.78;5080157;28;20039;-76
2022/10/10 04:17:27;;;;;;;4.10;3.30;;;18.10;94.20;;;18.26;61.42;99590.34;5069679;28;20043;-76
2022/10/10 04:19:53;;;;;;;5.15;3.17;;;18.10;94.00;;;18.20;62.59;99584.16;5097410;28;20058;-76
2022/10/10 04:22:19;;;;;;;2.83;2.38;;;18.10;94.20;;;18.23;63.43;99585.47;5051724;28;20039;-76
2022/10/10 04:24:45;;;;;;;4.78;3.33;;;18.10;94.40;;;18.19;63.63;99582.53;5070833;28;20049;-76
2022/10/10 04:27:11;;;;;;;5.07;3.30;;;18.00;94.40;;;18.25;62.26;99583.25;5103501;28;20062;-76
2022/10/10 04:29:37;;;;;;;3.78;2.45;;;18.10;94.20;;;18.27;61.97;99589.25;5097942;28;20044;-76
2022/10/10 04:32:03;;;;;;;2.83;2.53;;;18.10;94.10;;;18.30;61.09;99588.63;5098658;28;20039;-76
2022/10/10 04:34:29;;;;;;;3.47;2.90;;;18.10;93.90;;;18.23;61.64;99590.97;5090870;28;20123;-76
2022/10/10 04:36:55;;;;;;;3.53;2.75;;;18.00;93.90;;;18.21;62.50;99587.72;5075044;28;20046;-76
2022/10/10 04:39:21;;;;;;;5.32;2.97;;;18.00;94.10;;;18.21;62.76;99587.72;5073238;28;20043;-76
2022/10/10 04:41:48;;;;;;;5.63;3.10;;;18.10;94.20;;;18.26;62.48;99581.31;5084205;28;20088;-76
2022/10/10 04:44:17;;;;;;;4.38;2.70;;;18.10;94.20;;;18.25;61.46;99585.19;5091042;28;20154;-76
2022/10/10 04:46:44;;;;;;;4.53;2.92;;;18.10;93.90;;;18.20;61.22;99586.09;5086553;28;20036;-76
2022/10/10 04:49:10;;;;;;;4.65;3.08;;;18.00;93.80;;;18.21;60.19;99584.97;5090324;28;20461;-77
2022/10/10 04:51:37;;;;;;;4.10;3.40;;;18.10;93.60;;;18.18;61.03;99580.91;5065434;28;20506;-76
2022/10/10 04:54:03;;;;;;;3.55;2.92;;;18.10;93.80;;;18.20;62.02;99578.66;5064917;28;20039;-76
2022/10/10 04:56:29;;;;;;;4.93;2.95;;;18.10;94.20;;;18.20;62.35;99586.91;5087825;28;20084;-76
2022/10/10 04:58:56;;;;;;;4.40;3.13;;;18.10;94.20;;;18.24;61.49;99589.84;5067084;28;20055;-75
2022/10/10 05:01:22;;;;;;;4.40;3.30;;;18.10;93.90;;;18.30;60.73;99587.84;5088109;28;20135;-75
2022/10/10 05:03:48;;;;;;;4.13;3.47;;;18.10;93.80;;;18.24;60.76;99581.59;5086398;28;20058;-76
2022/10/10 05:06:14;;;;;;;3.88;2.80;;;18.00;93.70;;;18.26;60.52;99586.81;5064938;28;20044;-76
2022/10/10 05:08:40;;;;;;;4.47;2.90;;;18.00;93.70;;;18.32;61.12;99583.66;5090417;28;20055;-75
2022/10/10 05:11:06;;;;;;;4.05;2.47;;;18.10;94.00;;;18.36;61.10;99581.91;5099257;28;20134;-76
2022/10/10 05:13:32;;;;;;;2.97;2.60;;;18.10;94.10;;;18.34;61.04;99578.69;5099915;28;20641;-76
2022/10/10 05:15:59;;;;;;;3.85;3.28;;;18.20;94.00;;;18.33;60.73;99571.53;5086043;28;20049;-76
2022/10/10 05:18:25;;;;;;;3.72;2.80;;;18.10;93.80;;;18.34;60.34;99570.44;5113945;27;20360;-76
2022/10/10 05:20:51;;;;;;;4.43;3.58;;;18.10;93.70;;;18.34;60.08;99573.19;5056817;28;20044;-76
2022/10/10 05:23:17;;;;;;;4.90;3.38;;;18.10;93.60;;;18.41;59.59;99576.31;5082560;28;20040;-76
2022/10/10 05:25:47;;;;;;;3.58;2.83;;;18.20;93.70;;;18.43;60.18;99573.28;5096777;28;20058;-76
2022/10/10 05:28:13;;;;;;;2.95;2.67;;;18.10;93.90;;;18.51;60.17;99571.72;5065363;28;20043;-76
2022/10/10 05:30:40;;;;;;;3.42;2.60;;;18.20;94.00;;;18.50;59.89;99568.19;5055601;28;20044;-76
2022/10/10 05:33:06;;;;;;;4.78;2.75;;;18.20;93.80;;;18.45;59.92;99576.53;5081087;28;20135;-76
2022/10/10 05:35:32;;;;;;;4.97;3.58;;;18.20;94.00;;;18.47;59.49;99578.94;5086487;28;20043;-76
2022/10/10 05:37:58;;;;;;;5.43;3.22;;;18.20;93.60;;;18.55;59.00;99578.25;5089063;28;20796;-76
2022/10/10 05:40:24;;;;;;;6.43;3.30;;;18.20;93.60;;;18.54;59.56;99584.84;5065555;28;20040;-76
2022/10/10 05:42:50;;;;;;;4.80;3.75;;;18.30;93.80;;;18.56;59.61;99583.41;5070154;28;20047;-76
2022/10/10 05:45:16;;;;;;;3.42;2.70;;;18.30;93.90;;;18.59;59.88;99582.00;5078677;28;20516;-76
2022/10/10 05:47:43;;;;;;;3.30;3.00;;;18.30;93.80;;;18.59;59.37;99587.50;5098387;28;20036;-76
2022/10/10 05:50:23;;;;;;;2.75;2.30;;;18.30;93.60;;;18.62;58.95;99590.44;5083870;28;20577;-76
2022/10/10 05:52:49;;;;;;;4.80;3.10;;;18.30;93.60;;;18.63;59.12;99583.81;5066749;28;20040;-76
2022/10/10 05:55:16;;;;;;;2.85;2.53;;;18.30;93.60;;;18.70;58.72;99591.66;5094958;28;20487;-76
2022/10/10 05:57:42;;;;;;;2.97;2.30;;;18.30;93.60;;;18.70;58.94;99591.66;5099874;28;20561;-76
2022/10/10 06:00:09;;;;;;;6.97;3.33;;;18.30;93.60;;;18.72;58.88;99589.41;5080502;28;20039;-76
2022/10/10 06:02:35;;;;;;;2.45;2.13;;;18.30;93.70;;;18.81;58.60;99590.34;5079407;28;20047;-76
2022/10/10 06:05:01;;;;;;;3.78;2.95;;;18.40;93.70;;;18.81;58.98;99592.28;5079857;28;20100;-76
2022/10/10 06:07:27;;;;;;;9.38;2.95;;;18.40;93.80;;;18.82;58.92;99593.88;5092533;28;20048;-77
2022/10/10 06:09:54;;;;;;;2.85;2.20;;;18.40;93.80;;;18.87;58.69;99594.56;5063063;28;20048;-77
2022/10/10 06:12:20;;;;;;;3.58;2.42;;;18.50;93.80;;;18.89;58.69;99587.97;5095650;28;20792;-77
2022/10/10 06:14:46;;;;;;;3.70;3.28;;;18.50;93.80;;;18.95;58.42;99592.22;5048735;28;20044;-77
2022/10/10 06:17:12;;;;;;;3.83;2.97;;;18.50;93.80;;;18.91;58.66;99594.78;5066934;28;20040;-77
2022/10/10 06:19:38;;;;;;;4.65;3.17;;;18.50;93.80;;;18.93;59.01;99602.72;5082563;28;20036;-76
2022/10/10 06:22:04;;;;;;;5.00;3.03;;;18.50;93.90;;;19.01;58.75;99599.25;5097762;28;20116;-77
2022/10/10 06:24:30;;;;;;;3.88;2.55;;;18.60;93.90;;;19.02;58.91;99598.91;5083570;28;20040;-77
2022/10/10 06:26:56;;;;;;;3.58;2.60;;;18.60;93.90;;;19.02;58.82;99598.91;5097554;28;20529;-77
2022/10/10 06:29:23;;;;;;;4.00;2.65;;;18.60;93.90;;;19.08;58.71;99602.34;5065020;28;20046;-77
2022/10/10 06:31:49;;;;;;;2.47;2.22;;;18.60;93.90;;;19.12;58.58;99594.31;5103855;28;20146;-77
2022/10/10 06:34:15;;;;;;;4.13;2.83;;;18.60;93.90;;;19.14;58.60;99594.81;5065634;28;20490;-77
2022/10/10 06:36:41;;;;;;;3.85;2.85;;;18.70;93.90;;;19.19;58.61;99598.25;5081813;28;20040;-77
2022/10/10 06:39:07;;;;;;;6.22;2.80;;;18.70;93.90;;;19.23;58.55;99604.78;5100076;28;20459;-77
2022/10/10 06:41:33;;;;;;;3.17;2.72;;;18.70;93.90;;;19.23;58.48;99598.44;5088765;28;20406;-77
2022/10/10 06:43:59;;;;;;;4.18;3.03;;;18.80;93.90;;;19.23;58.52;99604.78;5087778;28;20036;-76
2022/10/10 06:46:25;;;;;;;3.40;2.80;;;18.80;93.90;;;19.28;58.14;99604.66;5081211;28;20503;-76
2022/10/10 06:48:51;;;;;;;3.22;2.58;;;18.80;94.00;;;19.32;58.19;99601.28;5070220;28;20039;-76
2022/10/10 06:51:17;;;;;;;4.07;2.53;;;18.80;93.80;;;19.32;58.23;99596.59;5094003;28;20050;-76
2022/10/10 06:53:44;;;;;;;2.58;2.30;;;18.80;93.80;;;19.35;58.18;99595.16;5078531;28;20047;-76
2022/10/10 06:56:16;;;;;;;4.75;2.60;;;18.90;93.80;;;19.38;58.43;99600.00;5051322;28;20038;-76
2022/10/10 06:58:43;;;;;;;6.65;2.22;;;18.90;93.90;;;19.40;58.31;99592.28;5062008;28;20044;-77
2022/10/10 07:01:09;;;;;;;2.90;2.60;;;19.00;93.90;;;19.40;58.19;99592.28;5097349;28;20044;-77
2022/10/10 07:03:35;;;;;;;3.97;2.85;;;19.00;93.80;;;19.38;58.19;99589.00;5062297;28;20040;-77
2022/10/10 07:06:02;;;;;;;3.65;2.80;;;19.00;93.80;;;19.43;58.12;99592.44;5089566;28;20047;-77
2022/10/10 07:08:28;;;;;;;3.35;2.72;;;19.00;93.80;;;19.46;58.10;99599.25;5071143;28;20739;-77
2022/10/10 07:10:55;;;;;;;3.55;2.90;;;19.00;93.90;;;19.47;58.10;99595.41;5077729;28;20534;-77
2022/10/10 07:13:22;;;;;;;4.68;2.40;;;19.00;93.90;;;19.50;57.82;99589.25;5066922;28;20387;-77
2022/10/10 07:15:48;;;;;;;3.75;2.85;;;19.00;93.80;;;19.52;57.91;99581.50;5070419;28;20695;-77
2022/10/10 07:18:17;;;;;;;2.53;2.30;;;19.00;93.80;;;19.56;57.88;99585.25;5080981;28;20050;-77
2022/10/10 07:20:43;;;;;;;3.38;2.78;;;19.10;93.70;;;19.53;57.91;99585.88;5084848;28;20465;-77
2022/10/10 07:23:09;;;;;;;3.42;2.88;;;19.10;93.70;;;19.58;57.72;99587.69;5097072;28;20385;-77
2022/10/10 07:25:39;;;;;;;3.35;2.47;;;19.20;93.70;;;19.58;57.86;99585.75;5060896;28;20088;-77
2022/10/10 07:28:06;;;;;;;5.25;3.08;;;19.20;93.80;;;19.58;57.79;99574.75;5087455;28;20039;-77
2022/10/10 07:30:33;;;;;;;2.60;2.40;;;19.10;93.80;;;19.61;57.78;99571.34;5065193;28;20054;-77
2022/10/10 07:32:59;;;;;;;3.75;2.55;;;19.10;93.80;;;19.60;57.88;99569.75;5097415;28;20047;-77
2022/10/10 07:35:25;;;;;;;3.25;2.50;;;19.10;93.80;;;19.61;57.64;99574.09;5076649;28;20092;-77
2022/10/10 07:37:54;;;;;;;2.55;2.28;;;19.20;93.80;;;19.63;57.38;99571.84;5078500;28;20044;-77
2022/10/10 07:40:21;;;;;;;2.15;1.95;;;19.20;93.70;;;19.66;57.23;99568.47;5066428;28;20048;-77
2022/10/10 07:42:47;;;;;;;2.33;2.13;;;19.20;93.70;;;19.67;57.64;99567.38;5101274;28;20044;-77
2022/10/10 07:45:13;;;;;;;2.35;2.15;;;19.20;93.70;;;19.69;57.59;99572.56;5067514;28;20048;-77
2022/10/10 07:47:40;;;;;;;3.40;2.22;;;19.20;93.70;;;19.66;57.56;99570.41;5085098;28;20550;-77
2022/10/10 07:50:06;;;;;;;3.05;2.28;;;19.20;93.70;;;19.71;57.19;99568.34;5079244;28;20050;-77
2022/10/10 07:52:34;;;;;;;6.93;3.10;;;19.30;93.70;;;19.73;57.31;99568.88;5094603;28;20057;-77
2022/10/10 07:55:01;;;;;;;2.90;2.40;;;19.30;93.70;;;19.74;57.31;99569.66;5098752;28;20036;-77
2022/10/10 07:57:27;;;;;;;5.18;2.60;;;19.30;93.60;;;19.73;56.86;99563.34;5085504;28;20051;-77
2022/10/10 07:59:53;;;;;;;3.25;2.22;;;19.30;93.60;;;19.77;57.24;99568.22;5085191;28;20400;-77
2022/10/10 08:02:19;;;;;;;3.85;2.58;;;19.30;93.70;;;19.75;57.16;99565.81;5097816;28;20478;-77
2022/10/10 08:04:45;;;;;;;2.17;1.85;;;19.30;93.70;;;19.77;57.42;99555.28;5093905;28;20055;-77
2022/10/10 08:07:12;;;;;;;2.55;2.10;;;19.40;93.70;;;19.76;57.35;99567.41;5086403;28;20047;-77
2022/10/10 08:09:38;;;;;;;3.38;2.78;;;19.40;93.60;;;19.79;57.06;99560.47;5061967;28;20044;-77
2022/10/10 08:12:04;;;;;;;3.10;2.88;;;19.40;93.60;;;19.80;56.93;99551.91;5082081;28;20051;-77
2022/10/10 08:14:30;;;;;;;2.22;1.90;;;19.40;93.60;;;19.82;57.01;99551.56;5080664;28;20036;-77
2022/10/10 08:16:56;;;;;;;2.60;2.40;;;19.40;93.60;;;19.85;57.01;99553.72;5102615;28;20055;-77
2022/10/10 08:19:22;;;;;;;2.50;2.30;;;19.40;93.60;;;19.86;56.96;99549.81;5079668;28;20476;-77
2022/10/10 08:21:49;;;;;;;2.83;2.63;;;19.50;93.60;;;19.85;56.89;99546.25;5079356;28;20159;-77
2022/10/10 08:24:15;;;;;;;2.92;2.00;;;19.40;93.50;;;19.83;56.97;99548.50;5098638;28;20111;-77
2022/10/10 08:26:41;;;;;;;2.88;2.17;;;19.50;93.60;;;19.85;56.82;99539.94;5071524;28;20092;-77
2022/10/10 08:29:07;;;;;;;2.20;1.88;;;19.50;93.50;;;19.89;56.61;99541.72;5077633;28;20047;-77
2022/10/10 08:31:33;;;;;;;2.05;1.90;;;19.50;93.50;;;19.91;56.72;99535.91;5100777;28;20040;-77
2022/10/10 08:33:59;;;;;;;2.55;2.30;;;19.50;93.50;;;19.91;56.70;99527.66;5067032;28;20124;-77
2022/10/10 08:36:26;;;;;;;3.42;2.25;;;19.50;93.60;;;19.94;56.76;99535.28;5084022;28;20185;-77
2022/10/10 08:38:56;;;;;;;2.17;1.90;;;19.50;93.50;;;19.87;56.84;99530.25;5095577;28;20074;-77
2022/10/10 08:42:01;;;;;;;2.58;2.05;;;19.50;93.50;;;19.92;56.85;99532.03;5063101;28;20058;-77
2022/10/10 08:44:40;;;;;;;2.92;2.10;;;19.60;93.50;;;19.94;56.73;99529.75;5098145;28;20056;-77
2022/10/10 08:47:10;;;;;;;2.45;2.13;;;19.60;93.40;;;19.94;56.69;99530.56;5099201;28;20086;-77
2022/10/10 08:50:24;;;;;;;2.67;2.43;;;19.60;93.40;;;19.98;56.38;99517.00;5093791;28;20051;-77
2022/10/10 08:53:17;;;;;;;3.10;2.30;;;19.60;93.40;;;20.00;56.35;99517.50;5073882;28;20739;-77
2022/10/10 08:55:43;;;;;;;2.10;1.90;;;19.60;93.30;;;20.02;56.40;99515.22;5099251;28;20114;-77
2022/10/10 08:58:24;;;;;;;2.53;2.33;;;19.70;93.30;;;20.00;56.25;99505.66;5081721;28;20039;-77
2022/10/10 09:01:19;;;;;;;3.25;2.45;;;19.60;93.20;;;20.03;56.00;99505.03;5084377;28;20106;-77
2022/10/10 09:03:49;;;;;;;2.00;1.90;;;19.70;93.30;;;20.02;56.29;99501.44;5094865;28;20048;-77
2022/10/10 09:06:42;;;;;;;3.13;1.77;;;19.70;93.30;;;20.04;56.13;99510.19;5068956;28;20043;-77
2022/10/10 09:09:23;;;;;;;2.30;2.10;;;19.70;93.30;;;20.00;56.33;99500.97;5094069;28;20564;-77
2022/10/10 09:12:11;;;;;;;1.90;1.75;;;19.70;93.30;;;20.04;56.09;99495.63;5085983;28;20146;-77
2022/10/10 09:14:48;;;;;;;2.20;2.00;;;19.70;93.20;;;20.06;56.19;99491.41;5098634;28;20040;-77
2022/10/10 09:17:39;;;;;;;3.38;2.42;;;19.80;93.30;;;20.08;56.15;99491.91;5100142;28;20104;-77
2022/10/10 09:20:21;;;;;;;2.60;2.28;;;19.80;93.20;;;20.10;55.96;99480.59;5114100;27;20040;-77
2022/10/10 09:22:52;;;;;;;2.67;2.28;;;19.80;93.20;;;20.10;55.91;99480.59;5102004;28;20050;-77
2022/10/10 09:25:27;;;;;;;3.13;2.28;;;19.80;93.20;;;20.11;55.91;99484.97;5079938;28;20494;-77
2022/10/10 09:28:04;;;;;;;3.10;2.22;;;19.80;93.10;;;20.12;55.89;99472.81;5087215;28;20039;-77
2022/10/10 09:30:32;;;;;;;1.70;1.60;;;19.90;93.20;;;20.11;55.86;99469.25;5089018;28;20039;-77
2022/10/10 09:33:08;;;;;;;1.98;1.77;;;19.80;93.00;;;20.13;55.94;99472.50;5050750;28;20124;-77
2022/10/10 09:35:37;;;;;;;2.42;2.22;;;19.90;93.10;;;20.17;55.90;99470.72;5078995;28;20470;-77
2022/10/10 09:38:36;;;;;;;2.97;2.15;;;19.90;93.10;;;20.15;55.73;99461.97;5067152;28;20562;-77
2022/10/10 09:41:10;;;;;;;2.60;2.28;;;19.90;93.40;;;20.15;55.39;99470.22;5075013;28;20072;-77
2022/10/10 09:43:38;;;;;;;2.40;1.83;;;19.90;93.00;;;20.16;55.64;99466.34;5101748;27;20046;-77
2022/10/10 09:46:04;;;;;;;2.60;1.95;;;19.90;93.00;;;20.16;55.73;99466.34;5064692;28;20487;-77
2022/10/10 09:48:33;;;;;;;4.07;2.47;;;19.90;93.00;;;20.19;55.61;99461.31;5081846;28;20462;-77
2022/10/10 09:51:01;;;;;;;2.42;2.03;;;19.90;93.00;;;20.21;55.52;99464.56;5062087;28;20043;-77
2022/10/10 09:53:27;;;;;;;2.60;2.00;;;20.00;93.00;;;20.19;55.27;99459.38;5066761;28;20414;-77
2022/10/10 09:55:53;;;;;;;2.70;1.52;;;19.90;92.90;;;20.19;55.68;99451.09;5080248;28;20399;-77
2022/10/10 09:58:40;;;;;;;1.60;1.50;;;20.00;92.90;;;20.21;55.23;99459.06;5068340;28;20514;-77
2022/10/10 10:01:16;;;;;;;2.05;1.95;;;19.90;92.80;;;20.24;55.27;99450.16;5086091;28;20550;-77
2022/10/10 10:03:43;;;;;;;3.45;2.00;;;20.00;92.80;;;20.23;55.14;99448.53;5099686;28;20044;-77
2022/10/10 10:06:13;;;;;;;2.30;2.10;;;20.00;92.70;;;20.24;55.12;99450.16;5050898;28;20062;-77
2022/10/10 10:08:40;;;;;;;2.10;1.95;;;20.00;92.70;;;20.25;55.25;99444.31;5088075;28;20039;-77
2022/10/10 10:11:25;;;;;;;2.30;2.10;;;20.10;92.80;;;20.25;55.22;99446.25;5065679;28;20055;-77
2022/10/10 10:13:55;;;;;;;2.58;1.83;;;20.00;92.70;;;20.27;55.10;99447.53;5075035;28;20310;-76
2022/10/10 10:16:38;;;;;;;2.63;2.17;;;20.10;92.60;;;20.27;55.06;99447.53;5089117;28;20039;-77
2022/10/10 10:19:06;;;;;;;2.30;1.90;;;20.10;92.60;;;20.29;54.98;99445.28;5088160;28;20403;-77
2022/10/10 10:21:48;;;;;;;2.03;1.92;;;20.10;92.70;;;20.31;54.83;99440.28;5086333;28;20169;-77
2022/10/10 10:24:23;;;;;;;2.35;1.55;;;20.10;92.70;;;20.31;55.00;99436.72;5068506;28;20039;-77
2022/10/10 10:26:49;;;;;;;1.88;1.60;;;20.10;92.60;;;20.30;54.96;99433.16;5086894;28;20051;-77
2022/10/10 10:29:31;;;;;;;2.65;2.45;;;20.10;92.60;;;20.32;55.03;99421.78;5079824;28;20040;-77
2022/10/10 10:32:21;;;;;;;2.42;1.98;;;20.10;92.70;;;20.35;54.88;99418.38;5104414;28;20043;-77